sensor_id;sensor_type;location;lat;lon;timestamp;temperature;humidity
15413;DHT22;7805;49.554;7.632;2022-12-18T00:01:35;-6.30;99.90
15413;DHT22;7805;49.554;7.632;2022-12-18T00:04:03;-6.30;99.90
15413;DHT22;7805;49.554;7.632;2022-12-18T00:06:29;-6.30;99.90
15413;DHT22;7805;49.554;7.632;2022-12-18T00:08:57;-6.30;99.90
15413;DHT22;7805;49.554;7.632;2022-12-18T00:11:27;-6.30;99.90
15413;DHT22;7805;49.554;7.632;2022-12-18T00:13:54;-6.30;99.90
15413;DHT22;7805;49.554;7.632;2022-12-18T00:16:22;-6.20;99.90
15413;DHT22;7805;49.554;7.632;2022-12-18T00:18:49;-6.30;99.90
15413;DHT22;7805;49.554;7.632;2022-12-18T00:21:15;-6.30;99.90
15413;DHT22;7805;49.554;7.632;2022-12-18T00:23:42;-6.20;99.90
15413;DHT22;7805;49.554;7.632;2022-12-18T00:26:11;-6.40;99.90
15413;DHT22;7805;49.554;7.632;2022-12-18T00:28:37;-6.40;99.90
15413;DHT22;7805;49.554;7.632;2022-12-18T00:31:08;-6.40;99.90
15413;DHT22;7805;49.554;7.632;2022-12-18T00:33:34;-6.40;99.90
15413;DHT22;7805;49.554;7.632;2022-12-18T00:38:30;-6.50;99.90
15413;DHT22;7805;49.554;7.632;2022-12-18T00:40:57;-6.20;99.90
15413;DHT22;7805;49.554;7.632;2022-12-18T00:43:22;-6.20;99.90
15413;DHT22;7805;49.554;7.632;2022-12-18T00:45:48;-6.60;99.90
15413;DHT22;7805;49.554;7.632;2022-12-18T00:48:13;-6.20;99.90
15413;DHT22;7805;49.554;7.632;2022-12-18T00:50:39;-6.50;99.90
15413;DHT22;7805;49.554;7.632;2022-12-18T00:53:05;-6.70;99.90
15413;DHT22;7805;49.554;7.632;2022-12-18T00:55:30;-6.60;99.90
15413;DHT22;7805;49.554;7.632;2022-12-18T00:57:56;-6.30;99.90
15413;DHT22;7805;49.554;7.632;2022-12-18T01:00:22;-6.70;99.90
15413;DHT22;7805;49.554;7.632;2022-12-18T01:02:47;-6.40;99.90
15413;DHT22;7805;49.554;7.632;2022-12-18T01:05:13;-6.60;99.90
15413;DHT22;7805;49.554;7.632;2022-12-18T01:07:39;-6.60;99.90
15413;DHT22;7805;49.554;7.632;2022-12-18T01:10:06;-6.50;99.90
15413;DHT22;7805;49.554;7.632;2022-12-18T01:12:32;-6.50;99.90
15413;DHT22;7805;49.554;7.632;2022-12-18T01:14:58;-6.50;99.90
15413;DHT22;7805;49.554;7.632;2022-12-18T01:17:23;-6.60;99.90
15413;DHT22;7805;49.554;7.632;2022-12-18T01:19:49;-6.60;99.90
15413;DHT22;7805;49.554;7.632;2022-12-18T01:22:15;-6.10;99.90
15413;DHT22;7805;49.554;7.632;2022-12-18T01:24:41;-6.50;99.90
15413;DHT22;7805;49.554;7.632;2022-12-18T01:27:06;-6.50;99.90
15413;DHT22;7805;49.554;7.632;2022-12-18T01:29:32;-6.70;99.90
15413;DHT22;7805;49.554;7.632;2022-12-18T01:31:57;-6.70;99.90
15413;DHT22;7805;49.554;7.632;2022-12-18T01:34:24;-6.70;99.90
15413;DHT22;7805;49.554;7.632;2022-12-18T01:36:50;-6.70;99.90
15413;DHT22;7805;49.554;7.632;2022-12-18T01:39:18;-6.60;99.90
15413;DHT22;7805;49.554;7.632;2022-12-18T01:41:44;-6.70;99.90
15413;DHT22;7805;49.554;7.632;2022-12-18T01:47:22;-6.70;99.90
15413;DHT22;7805;49.554;7.632;2022-12-18T01:49:48;-6.70;99.90
15413;DHT22;7805;49.554;7.632;2022-12-18T01:52:15;-6.70;99.90
15413;DHT22;7805;49.554;7.632;2022-12-18T01:54:41;-6.60;99.90
15413;DHT22;7805;49.554;7.632;2022-12-18T01:57:06;-6.50;99.90
15413;DHT22;7805;49.554;7.632;2022-12-18T01:59:33;-6.50;99.90
15413;DHT22;7805;49.554;7.632;2022-12-18T02:02:01;-6.50;99.90
15413;DHT22;7805;49.554;7.632;2022-12-18T02:04:27;-6.50;99.90
15413;DHT22;7805;49.554;7.632;2022-12-18T02:10:06;-6.60;99.90
15413;DHT22;7805;49.554;7.632;2022-12-18T02:12:45;-6.60;99.90
15413;DHT22;7805;49.554;7.632;2022-12-18T02:15:19;-6.60;99.90
15413;DHT22;7805;49.554;7.632;2022-12-18T02:17:58;-6.60;99.90
15413;DHT22;7805;49.554;7.632;2022-12-18T02:20:36;-6.60;99.90
15413;DHT22;7805;49.554;7.632;2022-12-18T02:28:49;-6.70;99.90
15413;DHT22;7805;49.554;7.632;2022-12-18T02:31:22;-6.20;99.90
15413;DHT22;7805;49.554;7.632;2022-12-18T02:33:50;-6.60;99.90
15413;DHT22;7805;49.554;7.632;2022-12-18T02:36:17;-6.50;99.90
15413;DHT22;7805;49.554;7.632;2022-12-18T02:38:44;-6.40;99.90
15413;DHT22;7805;49.554;7.632;2022-12-18T02:41:12;-6.40;99.90
15413;DHT22;7805;49.554;7.632;2022-12-18T02:43:38;-6.50;99.90
15413;DHT22;7805;49.554;7.632;2022-12-18T02:48:53;-6.50;99.90
15413;DHT22;7805;49.554;7.632;2022-12-18T02:51:30;-6.00;99.90
15413;DHT22;7805;49.554;7.632;2022-12-18T02:54:09;-6.00;99.90
15413;DHT22;7805;49.554;7.632;2022-12-18T02:56:50;-6.50;99.90
15413;DHT22;7805;49.554;7.632;2022-12-18T02:59:21;-6.50;99.90
15413;DHT22;7805;49.554;7.632;2022-12-18T03:02:00;-6.50;99.90
15413;DHT22;7805;49.554;7.632;2022-12-18T03:04:39;-6.40;99.90
15413;DHT22;7805;49.554;7.632;2022-12-18T03:07:12;-4.60;99.90
15413;DHT22;7805;49.554;7.632;2022-12-18T03:09:44;-6.40;99.90
15413;DHT22;7805;49.554;7.632;2022-12-18T03:15:04;-6.40;99.90
15413;DHT22;7805;49.554;7.632;2022-12-18T03:17:33;-6.40;99.90
15413;DHT22;7805;49.554;7.632;2022-12-18T03:20:10;-6.40;99.90
15413;DHT22;7805;49.554;7.632;2022-12-18T03:22:38;-6.40;99.90
15413;DHT22;7805;49.554;7.632;2022-12-18T03:25:07;-6.40;99.90
15413;DHT22;7805;49.554;7.632;2022-12-18T03:27:37;-6.50;99.90
15413;DHT22;7805;49.554;7.632;2022-12-18T03:30:07;-6.50;99.90
15413;DHT22;7805;49.554;7.632;2022-12-18T03:32:47;-6.50;99.90
15413;DHT22;7805;49.554;7.632;2022-12-18T03:35:16;-6.50;99.90
15413;DHT22;7805;49.554;7.632;2022-12-18T03:37:43;-6.50;99.90
15413;DHT22;7805;49.554;7.632;2022-12-18T03:40:09;-6.50;99.90
15413;DHT22;7805;49.554;7.632;2022-12-18T03:42:55;-6.50;99.90
15413;DHT22;7805;49.554;7.632;2022-12-18T03:45:36;-6.50;99.90
15413;DHT22;7805;49.554;7.632;2022-12-18T03:50:52;-6.50;99.90
15413;DHT22;7805;49.554;7.632;2022-12-18T03:55:51;-6.50;99.90
15413;DHT22;7805;49.554;7.632;2022-12-18T03:58:20;-6.60;99.90
15413;DHT22;7805;49.554;7.632;2022-12-18T04:00:50;-6.60;99.90
15413;DHT22;7805;49.554;7.632;2022-12-18T04:03:18;-6.70;99.90
15413;DHT22;7805;49.554;7.632;2022-12-18T04:05:48;-6.60;99.90
15413;DHT22;7805;49.554;7.632;2022-12-18T04:08:15;-6.80;99.90
15413;DHT22;7805;49.554;7.632;2022-12-18T04:10:41;-6.80;99.90
15413;DHT22;7805;49.554;7.632;2022-12-18T04:13:06;-6.20;99.90
15413;DHT22;7805;49.554;7.632;2022-12-18T04:15:36;-6.70;99.90
15413;DHT22;7805;49.554;7.632;2022-12-18T04:18:02;-6.80;99.90
15413;DHT22;7805;49.554;7.632;2022-12-18T04:20:28;-6.90;99.90
15413;DHT22;7805;49.554;7.632;2022-12-18T04:22:54;-6.90;99.90
15413;DHT22;7805;49.554;7.632;2022-12-18T04:25:20;-6.80;99.90
15413;DHT22;7805;49.554;7.632;2022-12-18T04:27:45;-6.80;99.90
15413;DHT22;7805;49.554;7.632;2022-12-18T04:30:11;-6.70;99.90
15413;DHT22;7805;49.554;7.632;2022-12-18T04:32:36;-6.70;99.90
15413;DHT22;7805;49.554;7.632;2022-12-18T04:35:03;-6.70;99.90
15413;DHT22;7805;49.554;7.632;2022-12-18T04:37:29;-6.70;99.90
15413;DHT22;7805;49.554;7.632;2022-12-18T04:39:55;-6.60;99.90
15413;DHT22;7805;49.554;7.632;2022-12-18T04:42:20;-6.70;99.90
15413;DHT22;7805;49.554;7.632;2022-12-18T04:44:46;-6.70;99.90
15413;DHT22;7805;49.554;7.632;2022-12-18T04:47:12;-6.70;99.90
15413;DHT22;7805;49.554;7.632;2022-12-18T04:49:37;-6.60;99.90
15413;DHT22;7805;49.554;7.632;2022-12-18T04:52:03;-6.00;99.90
15413;DHT22;7805;49.554;7.632;2022-12-18T04:54:28;-6.50;99.90
15413;DHT22;7805;49.554;7.632;2022-12-18T04:56:54;-6.10;99.90
15413;DHT22;7805;49.554;7.632;2022-12-18T04:59:19;-6.50;99.90
15413;DHT22;7805;49.554;7.632;2022-12-18T05:01:45;-6.50;99.90
15413;DHT22;7805;49.554;7.632;2022-12-18T05:04:11;-6.40;99.90
15413;DHT22;7805;49.554;7.632;2022-12-18T05:06:36;-6.40;99.90
15413;DHT22;7805;49.554;7.632;2022-12-18T05:09:02;-6.40;99.90
15413;DHT22;7805;49.554;7.632;2022-12-18T05:11:28;-6.50;99.90
15413;DHT22;7805;49.554;7.632;2022-12-18T05:13:56;-6.40;99.90
15413;DHT22;7805;49.554;7.632;2022-12-18T05:16:22;-6.40;99.90
15413;DHT22;7805;49.554;7.632;2022-12-18T05:18:47;-6.40;99.90
15413;DHT22;7805;49.554;7.632;2022-12-18T05:21:13;-6.30;99.90
15413;DHT22;7805;49.554;7.632;2022-12-18T05:23:38;-6.40;99.90
15413;DHT22;7805;49.554;7.632;2022-12-18T05:26:05;-6.40;99.90
15413;DHT22;7805;49.554;7.632;2022-12-18T05:28:33;-6.40;99.90
15413;DHT22;7805;49.554;7.632;2022-12-18T05:31:01;-6.40;99.90
15413;DHT22;7805;49.554;7.632;2022-12-18T05:33:30;-6.40;99.90
15413;DHT22;7805;49.554;7.632;2022-12-18T05:35:58;-6.40;99.90
15413;DHT22;7805;49.554;7.632;2022-12-18T05:38:25;-6.30;99.90
15413;DHT22;7805;49.554;7.632;2022-12-18T05:40:51;-6.30;99.90
15413;DHT22;7805;49.554;7.632;2022-12-18T05:43:18;-6.30;99.90
15413;DHT22;7805;49.554;7.632;2022-12-18T05:45:45;-6.40;99.90
15413;DHT22;7805;49.554;7.632;2022-12-18T05:48:10;-6.30;99.90
15413;DHT22;7805;49.554;7.632;2022-12-18T05:50:40;-6.30;99.90
15413;DHT22;7805;49.554;7.632;2022-12-18T05:53:06;-6.30;99.90
15413;DHT22;7805;49.554;7.632;2022-12-18T05:55:36;-6.30;99.90
15413;DHT22;7805;49.554;7.632;2022-12-18T05:58:03;-6.30;99.90
15413;DHT22;7805;49.554;7.632;2022-12-18T06:00:30;-6.50;99.90
15413;DHT22;7805;49.554;7.632;2022-12-18T06:02:57;-6.40;99.90
15413;DHT22;7805;49.554;7.632;2022-12-18T06:05:23;-6.50;99.90
15413;DHT22;7805;49.554;7.632;2022-12-18T06:07:48;-6.40;99.90
15413;DHT22;7805;49.554;7.632;2022-12-18T06:10:14;-6.50;99.90
15413;DHT22;7805;49.554;7.632;2022-12-18T06:12:39;-6.60;99.90
15413;DHT22;7805;49.554;7.632;2022-12-18T06:15:05;-6.70;99.90
15413;DHT22;7805;49.554;7.632;2022-12-18T06:17:32;-6.60;99.90
15413;DHT22;7805;49.554;7.632;2022-12-18T06:19:58;-8.30;99.90
15413;DHT22;7805;49.554;7.632;2022-12-18T06:22:24;-6.60;99.90
15413;DHT22;7805;49.554;7.632;2022-12-18T06:24:50;-6.50;99.90
15413;DHT22;7805;49.554;7.632;2022-12-18T06:27:15;-6.80;99.90
15413;DHT22;7805;49.554;7.632;2022-12-18T06:29:41;-6.80;99.90
15413;DHT22;7805;49.554;7.632;2022-12-18T06:32:07;-6.60;99.90
15413;DHT22;7805;49.554;7.632;2022-12-18T06:34:33;-6.80;99.90
15413;DHT22;7805;49.554;7.632;2022-12-18T06:36:59;-6.80;99.90
15413;DHT22;7805;49.554;7.632;2022-12-18T06:39:27;-6.90;99.90
15413;DHT22;7805;49.554;7.632;2022-12-18T06:41:53;-6.90;99.90
15413;DHT22;7805;49.554;7.632;2022-12-18T06:44:18;-9.00;99.90
15413;DHT22;7805;49.554;7.632;2022-12-18T06:46:44;-6.80;99.90
15413;DHT22;7805;49.554;7.632;2022-12-18T06:49:10;-6.70;99.90
15413;DHT22;7805;49.554;7.632;2022-12-18T06:51:35;-6.70;99.90
15413;DHT22;7805;49.554;7.632;2022-12-18T06:54:01;-6.80;99.90
15413;DHT22;7805;49.554;7.632;2022-12-18T06:56:27;-6.30;99.90
15413;DHT22;7805;49.554;7.632;2022-12-18T06:58:53;-6.70;99.90
15413;DHT22;7805;49.554;7.632;2022-12-18T07:01:19;-6.70;99.90
15413;DHT22;7805;49.554;7.632;2022-12-18T07:03:44;-6.60;99.90
15413;DHT22;7805;49.554;7.632;2022-12-18T07:06:18;-6.70;99.90
15413;DHT22;7805;49.554;7.632;2022-12-18T07:08:45;-6.70;99.90
15413;DHT22;7805;49.554;7.632;2022-12-18T07:11:10;-6.70;99.90
15413;DHT22;7805;49.554;7.632;2022-12-18T07:13:36;-6.70;99.90
15413;DHT22;7805;49.554;7.632;2022-12-18T07:16:09;-6.70;99.90
15413;DHT22;7805;49.554;7.632;2022-12-18T07:18:36;-6.70;99.90
15413;DHT22;7805;49.554;7.632;2022-12-18T07:21:06;-6.20;99.90
15413;DHT22;7805;49.554;7.632;2022-12-18T07:23:33;-6.70;99.90
15413;DHT22;7805;49.554;7.632;2022-12-18T07:26:05;-6.80;99.90
15413;DHT22;7805;49.554;7.632;2022-12-18T07:28:32;-6.80;99.90
15413;DHT22;7805;49.554;7.632;2022-12-18T07:31:02;-6.80;99.90
15413;DHT22;7805;49.554;7.632;2022-12-18T07:33:27;-6.80;99.90
15413;DHT22;7805;49.554;7.632;2022-12-18T07:35:53;-6.70;99.90
15413;DHT22;7805;49.554;7.632;2022-12-18T07:38:18;-6.70;99.90
15413;DHT22;7805;49.554;7.632;2022-12-18T07:40:44;-6.70;99.90
15413;DHT22;7805;49.554;7.632;2022-12-18T07:43:09;-6.30;99.90
15413;DHT22;7805;49.554;7.632;2022-12-18T07:45:35;-6.50;99.90
15413;DHT22;7805;49.554;7.632;2022-12-18T07:48:01;-6.50;99.90
15413;DHT22;7805;49.554;7.632;2022-12-18T07:50:27;-6.40;99.90
15413;DHT22;7805;49.554;7.632;2022-12-18T07:52:52;-6.10;99.90
15413;DHT22;7805;49.554;7.632;2022-12-18T07:55:18;-6.40;99.90
15413;DHT22;7805;49.554;7.632;2022-12-18T07:57:43;-6.30;99.90
15413;DHT22;7805;49.554;7.632;2022-12-18T08:00:09;-6.30;99.90
15413;DHT22;7805;49.554;7.632;2022-12-18T08:02:35;-6.20;99.90
15413;DHT22;7805;49.554;7.632;2022-12-18T08:05:01;-6.10;99.90
15413;DHT22;7805;49.554;7.632;2022-12-18T08:07:26;-6.10;99.90
15413;DHT22;7805;49.554;7.632;2022-12-18T08:09:52;-6.00;99.90
15413;DHT22;7805;49.554;7.632;2022-12-18T08:12:17;-5.90;99.90
15413;DHT22;7805;49.554;7.632;2022-12-18T08:14:43;-5.90;99.90
15413;DHT22;7805;49.554;7.632;2022-12-18T08:17:08;-5.90;99.90
15413;DHT22;7805;49.554;7.632;2022-12-18T08:19:34;-5.80;99.90
15413;DHT22;7805;49.554;7.632;2022-12-18T08:22:00;-5.80;99.90
15413;DHT22;7805;49.554;7.632;2022-12-18T08:24:25;-5.80;99.90
15413;DHT22;7805;49.554;7.632;2022-12-18T08:26:51;-5.70;99.90
15413;DHT22;7805;49.554;7.632;2022-12-18T08:29:16;-5.50;99.90
15413;DHT22;7805;49.554;7.632;2022-12-18T08:31:42;-5.30;99.90
15413;DHT22;7805;49.554;7.632;2022-12-18T08:34:08;-5.30;99.90
15413;DHT22;7805;49.554;7.632;2022-12-18T08:36:33;-5.10;99.90
15413;DHT22;7805;49.554;7.632;2022-12-18T08:38:59;-4.90;99.90
15413;DHT22;7805;49.554;7.632;2022-12-18T08:41:24;-4.80;99.90
15413;DHT22;7805;49.554;7.632;2022-12-18T08:43:50;-4.80;99.90
15413;DHT22;7805;49.554;7.632;2022-12-18T08:46:40;-4.80;99.90
15413;DHT22;7805;49.554;7.632;2022-12-18T08:49:06;-4.80;99.90
15413;DHT22;7805;49.554;7.632;2022-12-18T08:51:33;-4.80;99.90
15413;DHT22;7805;49.554;7.632;2022-12-18T08:53:59;-4.60;99.90
15413;DHT22;7805;49.554;7.632;2022-12-18T08:56:24;-4.50;99.90
15413;DHT22;7805;49.554;7.632;2022-12-18T08:58:54;-4.30;99.90
15413;DHT22;7805;49.554;7.632;2022-12-18T09:01:20;-4.10;99.90
15413;DHT22;7805;49.554;7.632;2022-12-18T09:03:45;-3.70;99.90
15413;DHT22;7805;49.554;7.632;2022-12-18T09:06:20;-3.40;99.90
15413;DHT22;7805;49.554;7.632;2022-12-18T09:08:46;-3.00;99.90
15413;DHT22;7805;49.554;7.632;2022-12-18T09:11:23;-2.80;99.90
15413;DHT22;7805;49.554;7.632;2022-12-18T09:13:50;-2.90;99.90
15413;DHT22;7805;49.554;7.632;2022-12-18T09:16:16;-3.40;99.90
15413;DHT22;7805;49.554;7.632;2022-12-18T09:18:42;-3.20;99.90
15413;DHT22;7805;49.554;7.632;2022-12-18T09:21:09;-3.00;99.90
15413;DHT22;7805;49.554;7.632;2022-12-18T09:23:35;-2.60;99.90
15413;DHT22;7805;49.554;7.632;2022-12-18T09:26:01;-1.90;99.90
15413;DHT22;7805;49.554;7.632;2022-12-18T09:28:26;-1.00;99.90
15413;DHT22;7805;49.554;7.632;2022-12-18T09:30:52;-0.30;99.90
15413;DHT22;7805;49.554;7.632;2022-12-18T09:33:18;0.10;99.90
15413;DHT22;7805;49.554;7.632;2022-12-18T09:35:44;0.30;99.90
15413;DHT22;7805;49.554;7.632;2022-12-18T09:38:18;0.20;99.90
15413;DHT22;7805;49.554;7.632;2022-12-18T09:40:50;0.40;99.90
15413;DHT22;7805;49.554;7.632;2022-12-18T09:46:20;1.50;99.90
15413;DHT22;7805;49.554;7.632;2022-12-18T09:48:52;2.10;99.90
15413;DHT22;7805;49.554;7.632;2022-12-18T09:51:23;1.80;99.40
15413;DHT22;7805;49.554;7.632;2022-12-18T09:54:03;1.90;99.90
15413;DHT22;7805;49.554;7.632;2022-12-18T09:56:34;1.80;99.40
15413;DHT22;7805;49.554;7.632;2022-12-18T09:59:02;1.80;99.80
15413;DHT22;7805;49.554;7.632;2022-12-18T10:01:31;1.00;98.30
15413;DHT22;7805;49.554;7.632;2022-12-18T10:03:57;0.70;99.90
15413;DHT22;7805;49.554;7.632;2022-12-18T10:17:38;2.20;99.90
15413;DHT22;7805;49.554;7.632;2022-12-18T10:23:09;2.00;98.70
15413;DHT22;7805;49.554;7.632;2022-12-18T10:25:55;1.80;99.40
15413;DHT22;7805;49.554;7.632;2022-12-18T10:28:26;1.50;99.30
15413;DHT22;7805;49.554;7.632;2022-12-18T10:30:52;1.10;99.90
15413;DHT22;7805;49.554;7.632;2022-12-18T10:33:21;1.10;99.90
15413;DHT22;7805;49.554;7.632;2022-12-18T10:35:49;1.00;99.90
15413;DHT22;7805;49.554;7.632;2022-12-18T10:43:47;0.00;99.90
15413;DHT22;7805;49.554;7.632;2022-12-18T10:46:17;-0.20;99.90
15413;DHT22;7805;49.554;7.632;2022-12-18T10:51:45;0.10;99.90
15413;DHT22;7805;49.554;7.632;2022-12-18T10:54:14;0.30;99.90
15413;DHT22;7805;49.554;7.632;2022-12-18T10:56:41;0.20;99.90
15413;DHT22;7805;49.554;7.632;2022-12-18T10:59:10;0.20;99.90
15413;DHT22;7805;49.554;7.632;2022-12-18T11:04:17;0.00;99.90
15413;DHT22;7805;49.554;7.632;2022-12-18T11:09:24;0.10;99.90
15413;DHT22;7805;49.554;7.632;2022-12-18T11:11:51;0.30;99.90
15413;DHT22;7805;49.554;7.632;2022-12-18T11:14:24;0.50;99.90
15413;DHT22;7805;49.554;7.632;2022-12-18T11:16:51;0.60;99.90
15413;DHT22;7805;49.554;7.632;2022-12-18T11:19:36;0.60;99.90
15413;DHT22;7805;49.554;7.632;2022-12-18T11:22:17;0.60;99.90
15413;DHT22;7805;49.554;7.632;2022-12-18T11:25:02;0.20;99.90
15413;DHT22;7805;49.554;7.632;2022-12-18T11:27:29;0.10;99.90
15413;DHT22;7805;49.554;7.632;2022-12-18T11:30:40;0.00;99.90
15413;DHT22;7805;49.554;7.632;2022-12-18T11:33:19;-0.10;99.90
15413;DHT22;7805;49.554;7.632;2022-12-18T11:35:52;-0.20;99.90
15413;DHT22;7805;49.554;7.632;2022-12-18T11:38:26;-0.20;99.90
15413;DHT22;7805;49.554;7.632;2022-12-18T11:41:19;-0.20;99.90
15413;DHT22;7805;49.554;7.632;2022-12-18T11:43:54;-0.40;99.90
15413;DHT22;7805;49.554;7.632;2022-12-18T11:46:53;-0.40;99.90
15413;DHT22;7805;49.554;7.632;2022-12-18T11:49:34;-0.50;99.90
15413;DHT22;7805;49.554;7.632;2022-12-18T11:54:43;-0.50;99.90
15413;DHT22;7805;49.554;7.632;2022-12-18T11:57:37;-0.20;99.90
15413;DHT22;7805;49.554;7.632;2022-12-18T12:00:20;-0.10;99.90
15413;DHT22;7805;49.554;7.632;2022-12-18T12:08:48;-0.50;99.90
15413;DHT22;7805;49.554;7.632;2022-12-18T12:16:44;-0.20;99.90
15413;DHT22;7805;49.554;7.632;2022-12-18T12:19:40;0.10;99.90
15413;DHT22;7805;49.554;7.632;2022-12-18T12:22:32;0.20;99.90
15413;DHT22;7805;49.554;7.632;2022-12-18T12:31:16;-0.10;99.90
15413;DHT22;7805;49.554;7.632;2022-12-18T12:39:52;-0.30;99.90
15413;DHT22;7805;49.554;7.632;2022-12-18T12:42:44;-0.20;99.90
15413;DHT22;7805;49.554;7.632;2022-12-18T12:45:58;-0.30;99.90
15413;DHT22;7805;49.554;7.632;2022-12-18T12:48:35;-0.40;99.90
15413;DHT22;7805;49.554;7.632;2022-12-18T12:51:08;-0.40;99.90
15413;DHT22;7805;49.554;7.632;2022-12-18T12:53:37;-0.40;99.90
15413;DHT22;7805;49.554;7.632;2022-12-18T12:56:04;-0.30;99.90
15413;DHT22;7805;49.554;7.632;2022-12-18T13:04:39;-0.30;99.90
15413;DHT22;7805;49.554;7.632;2022-12-18T13:07:20;-0.20;99.90
15413;DHT22;7805;49.554;7.632;2022-12-18T13:12:36;-0.40;99.90
15413;DHT22;7805;49.554;7.632;2022-12-18T13:15:23;-0.50;99.90
15413;DHT22;7805;49.554;7.632;2022-12-18T13:18:21;-0.70;99.90
15413;DHT22;7805;49.554;7.632;2022-12-18T13:36:44;-0.70;99.90
15413;DHT22;7805;49.554;7.632;2022-12-18T13:39:15;-0.80;99.90
15413;DHT22;7805;49.554;7.632;2022-12-18T13:41:54;-0.90;99.90
15413;DHT22;7805;49.554;7.632;2022-12-18T13:44:56;-0.80;99.90
15413;DHT22;7805;49.554;7.632;2022-12-18T13:49:51;-0.80;99.90
15413;DHT22;7805;49.554;7.632;2022-12-18T13:52:21;-0.70;99.90
15413;DHT22;7805;49.554;7.632;2022-12-18T13:54:51;-0.70;99.90
15413;DHT22;7805;49.554;7.632;2022-12-18T13:57:44;-0.70;99.90
15413;DHT22;7805;49.554;7.632;2022-12-18T14:00:32;-0.50;99.90
15413;DHT22;7805;49.554;7.632;2022-12-18T14:02:59;-2.50;99.90
15413;DHT22;7805;49.554;7.632;2022-12-18T14:05:33;-0.50;99.90
15413;DHT22;7805;49.554;7.632;2022-12-18T14:08:10;-0.50;99.90
15413;DHT22;7805;49.554;7.632;2022-12-18T14:10:41;-0.60;99.90
15413;DHT22;7805;49.554;7.632;2022-12-18T14:13:09;-0.70;99.90
15413;DHT22;7805;49.554;7.632;2022-12-18T14:15:47;-0.60;99.90
15413;DHT22;7805;49.554;7.632;2022-12-18T14:18:21;-0.60;99.90
15413;DHT22;7805;49.554;7.632;2022-12-18T14:20:49;-0.60;99.90
15413;DHT22;7805;49.554;7.632;2022-12-18T14:25:51;-0.80;99.90
15413;DHT22;7805;49.554;7.632;2022-12-18T14:28:16;-0.80;99.90
15413;DHT22;7805;49.554;7.632;2022-12-18T14:30:44;-0.90;99.90
15413;DHT22;7805;49.554;7.632;2022-12-18T14:33:11;-0.90;99.90
15413;DHT22;7805;49.554;7.632;2022-12-18T14:35:43;-0.90;99.90
15413;DHT22;7805;49.554;7.632;2022-12-18T14:38:24;-0.90;99.90
15413;DHT22;7805;49.554;7.632;2022-12-18T14:41:03;-1.00;99.90
15413;DHT22;7805;49.554;7.632;2022-12-18T14:43:32;-1.10;99.90
15413;DHT22;7805;49.554;7.632;2022-12-18T14:45:58;-1.10;99.90
15413;DHT22;7805;49.554;7.632;2022-12-18T14:48:38;-1.20;99.90
15413;DHT22;7805;49.554;7.632;2022-12-18T14:51:15;-1.30;99.90
15413;DHT22;7805;49.554;7.632;2022-12-18T14:53:47;-1.40;99.90
15413;DHT22;7805;49.554;7.632;2022-12-18T14:56:20;-1.40;99.90
15413;DHT22;7805;49.554;7.632;2022-12-18T14:58:54;-1.30;99.90
15413;DHT22;7805;49.554;7.632;2022-12-18T15:01:23;-1.30;99.90
15413;DHT22;7805;49.554;7.632;2022-12-18T15:03:50;-1.20;99.90
15413;DHT22;7805;49.554;7.632;2022-12-18T15:06:31;-1.30;99.90
15413;DHT22;7805;49.554;7.632;2022-12-18T15:08:58;-1.20;99.90
15413;DHT22;7805;49.554;7.632;2022-12-18T15:11:55;-1.20;99.90
15413;DHT22;7805;49.554;7.632;2022-12-18T15:14:40;-1.20;99.90
15413;DHT22;7805;49.554;7.632;2022-12-18T15:17:18;-3.00;99.90
15413;DHT22;7805;49.554;7.632;2022-12-18T15:19:45;-1.20;99.90
15413;DHT22;7805;49.554;7.632;2022-12-18T15:24:43;-1.20;99.90
15413;DHT22;7805;49.554;7.632;2022-12-18T15:30:00;-1.20;99.90
15413;DHT22;7805;49.554;7.632;2022-12-18T15:32:25;-1.30;99.90
15413;DHT22;7805;49.554;7.632;2022-12-18T15:35:11;-1.30;99.90
15413;DHT22;7805;49.554;7.632;2022-12-18T15:37:38;-1.30;99.90
15413;DHT22;7805;49.554;7.632;2022-12-18T15:40:04;-1.20;99.90
15413;DHT22;7805;49.554;7.632;2022-12-18T15:42:30;-1.20;99.90
15413;DHT22;7805;49.554;7.632;2022-12-18T15:45:14;-1.30;99.90
15413;DHT22;7805;49.554;7.632;2022-12-18T15:47:40;-1.40;99.90
15413;DHT22;7805;49.554;7.632;2022-12-18T15:50:09;-1.40;99.90
15413;DHT22;7805;49.554;7.632;2022-12-18T15:52:45;-1.40;99.90
15413;DHT22;7805;49.554;7.632;2022-12-18T15:55:17;-1.30;99.90
15413;DHT22;7805;49.554;7.632;2022-12-18T15:58:01;-1.30;99.90
15413;DHT22;7805;49.554;7.632;2022-12-18T16:00:27;-1.30;99.90
15413;DHT22;7805;49.554;7.632;2022-12-18T16:02:53;-1.30;99.90
15413;DHT22;7805;49.554;7.632;2022-12-18T16:05:19;-1.30;99.90
15413;DHT22;7805;49.554;7.632;2022-12-18T16:07:46;-1.30;99.90
15413;DHT22;7805;49.554;7.632;2022-12-18T16:10:12;-1.10;99.90
15413;DHT22;7805;49.554;7.632;2022-12-18T16:12:38;-1.00;99.90
15413;DHT22;7805;49.554;7.632;2022-12-18T16:15:05;-1.10;99.90
15413;DHT22;7805;49.554;7.632;2022-12-18T16:17:36;-0.90;99.90
15413;DHT22;7805;49.554;7.632;2022-12-18T16:20:02;-1.20;99.90
15413;DHT22;7805;49.554;7.632;2022-12-18T16:22:29;-1.10;99.90
15413;DHT22;7805;49.554;7.632;2022-12-18T16:24:56;-1.30;99.90
15413;DHT22;7805;49.554;7.632;2022-12-18T16:27:22;-1.30;99.90
15413;DHT22;7805;49.554;7.632;2022-12-18T16:29:48;0.90;99.90
15413;DHT22;7805;49.554;7.632;2022-12-18T16:32:20;-1.40;99.90
15413;DHT22;7805;49.554;7.632;2022-12-18T16:34:46;-1.50;99.90
15413;DHT22;7805;49.554;7.632;2022-12-18T16:37:14;-1.50;99.90
15413;DHT22;7805;49.554;7.632;2022-12-18T16:39:40;-1.60;99.90
15413;DHT22;7805;49.554;7.632;2022-12-18T16:42:17;-1.60;99.90
15413;DHT22;7805;49.554;7.632;2022-12-18T16:44:45;-1.50;99.90
15413;DHT22;7805;49.554;7.632;2022-12-18T16:47:11;-1.50;99.90
15413;DHT22;7805;49.554;7.632;2022-12-18T16:49:37;-1.50;99.90
15413;DHT22;7805;49.554;7.632;2022-12-18T16:52:06;-1.50;99.90
15413;DHT22;7805;49.554;7.632;2022-12-18T16:54:32;-1.50;99.90
15413;DHT22;7805;49.554;7.632;2022-12-18T16:57:00;-1.50;99.90
15413;DHT22;7805;49.554;7.632;2022-12-18T16:59:26;-1.60;99.90
15413;DHT22;7805;49.554;7.632;2022-12-18T17:01:53;-1.60;99.90
15413;DHT22;7805;49.554;7.632;2022-12-18T17:04:20;-1.70;99.90
15413;DHT22;7805;49.554;7.632;2022-12-18T17:06:46;-1.70;99.90
15413;DHT22;7805;49.554;7.632;2022-12-18T17:09:17;-1.70;99.90
15413;DHT22;7805;49.554;7.632;2022-12-18T17:11:47;-1.70;99.90
15413;DHT22;7805;49.554;7.632;2022-12-18T17:14:15;-1.70;99.90
15413;DHT22;7805;49.554;7.632;2022-12-18T17:16:41;-1.70;99.90
15413;DHT22;7805;49.554;7.632;2022-12-18T17:19:07;-1.70;99.90
15413;DHT22;7805;49.554;7.632;2022-12-18T17:21:33;-1.70;99.90
15413;DHT22;7805;49.554;7.632;2022-12-18T17:23:59;-1.80;99.90
15413;DHT22;7805;49.554;7.632;2022-12-18T17:26:25;-1.80;99.90
15413;DHT22;7805;49.554;7.632;2022-12-18T17:28:51;-1.90;99.90
15413;DHT22;7805;49.554;7.632;2022-12-18T17:31:20;-1.80;99.90
15413;DHT22;7805;49.554;7.632;2022-12-18T17:33:46;-1.80;99.90
15413;DHT22;7805;49.554;7.632;2022-12-18T17:36:12;-1.90;99.90
15413;DHT22;7805;49.554;7.632;2022-12-18T17:38:38;-1.50;99.90
15413;DHT22;7805;49.554;7.632;2022-12-18T17:41:06;-1.90;99.90
15413;DHT22;7805;49.554;7.632;2022-12-18T17:43:33;-1.90;99.90
15413;DHT22;7805;49.554;7.632;2022-12-18T17:46:04;-1.90;99.90
15413;DHT22;7805;49.554;7.632;2022-12-18T17:48:31;-1.90;99.90
15413;DHT22;7805;49.554;7.632;2022-12-18T17:51:04;-2.00;99.90
15413;DHT22;7805;49.554;7.632;2022-12-18T17:53:30;-2.00;99.90
15413;DHT22;7805;49.554;7.632;2022-12-18T17:55:57;-1.90;99.90
15413;DHT22;7805;49.554;7.632;2022-12-18T17:58:25;-1.90;99.90
15413;DHT22;7805;49.554;7.632;2022-12-18T18:00:50;-1.80;99.90